createdAt,value
2019-05-19T00:00:50.691Z,4.13
2019-05-19T00:03:20.957Z,3.63
2019-05-19T00:08:45.951Z,4.47
2019-05-19T00:11:15.428Z,4.13
2019-05-19T00:13:44.823Z,3.80
2019-05-19T00:16:14.491Z,4.10
2019-05-19T00:22:01.101Z,4.67
2019-05-19T00:25:09.915Z,4.53
2019-05-19T00:28:19.026Z,4.60
2019-05-19T00:34:13.133Z,4.80
2019-05-19T00:36:42.837Z,4.40
2019-05-19T00:39:12.658Z,4.60
2019-05-19T00:42:21.844Z,5.10
2019-05-19T00:44:51.399Z,6.63
2019-05-19T00:47:23.160Z,5.40
2019-05-19T00:55:24.192Z,6.10
2019-05-19T01:03:47.144Z,5.00
2019-05-19T01:06:16.490Z,5.13
2019-05-19T01:08:46.095Z,4.63
2019-05-19T01:11:15.512Z,4.00
2019-05-19T01:13:45.041Z,4.73
2019-05-19T01:16:14.879Z,4.77
2019-05-19T01:18:44.297Z,4.20
2019-05-19T01:21:53.179Z,4.63
2019-05-19T01:25:02.029Z,5.67
2019-05-19T01:30:46.840Z,5.00
2019-05-19T01:33:17.172Z,5.33
2019-05-19T01:38:42.721Z,4.97
2019-05-19T01:44:21.915Z,4.23
2019-05-19T01:47:30.781Z,4.27
2019-05-19T01:50:40.167Z,4.07
2019-05-19T01:56:36.600Z,4.00
2019-05-19T02:02:01.532Z,4.20
2019-05-19T02:05:10.853Z,3.70
2019-05-19T02:07:40.711Z,3.67
2019-05-19T02:13:18.788Z,3.90
2019-05-19T02:15:49.510Z,3.83
2019-05-19T02:18:19.344Z,3.93
2019-05-19T02:21:28.339Z,3.53
2019-05-19T02:23:58.315Z,4.07
2019-05-19T02:26:27.802Z,3.50
2019-05-19T02:28:58.830Z,3.10
2019-05-19T02:31:28.754Z,3.57
2019-05-19T02:36:54.456Z,3.77
2019-05-19T02:39:23.825Z,3.43
2019-05-19T02:45:29.642Z,4.23
2019-05-19T03:03:18.859Z,2.77
2019-05-19T03:05:48.267Z,2.53
2019-05-19T03:08:18.044Z,2.60
2019-05-19T03:11:26.734Z,2.47
2019-05-19T03:13:56.148Z,2.97
2019-05-19T03:17:04.959Z,2.30
2019-05-19T03:19:34.352Z,2.30
2019-05-19T03:24:59.546Z,2.50
2019-05-19T03:30:50.264Z,2.30
2019-05-19T03:36:13.060Z,2.10
2019-05-19T03:38:42.468Z,2.50
2019-05-19T03:44:07.804Z,2.57
2019-05-19T03:46:37.365Z,2.30
2019-05-19T03:49:46.442Z,2.10
2019-05-19T03:55:18.120Z,2.20
2019-05-19T03:57:47.886Z,2.00
2019-05-19T04:00:56.597Z,2.10
2019-05-19T04:06:28.015Z,1.70
2019-05-19T04:09:36.684Z,1.80
2019-05-19T04:12:06.680Z,1.83
2019-05-19T04:14:36.091Z,1.90
2019-05-19T04:17:05.467Z,1.60
2019-05-19T04:22:31.425Z,1.50
2019-05-19T04:25:01.325Z,1.70
2019-05-19T04:30:26.783Z,1.70
2019-05-19T04:32:56.289Z,1.63
2019-05-19T04:38:21.807Z,1.80
2019-05-19T04:40:51.429Z,1.70
2019-05-19T04:43:20.848Z,1.57
2019-05-19T04:45:50.756Z,1.70
2019-05-19T04:48:20.118Z,1.83
2019-05-19T04:50:49.558Z,1.70
2019-05-19T04:53:19.067Z,1.70
2019-05-19T04:55:48.577Z,1.80
2019-05-19T04:58:18.329Z,1.43
2019-05-19T05:01:27.014Z,2.10
2019-05-19T05:03:57.341Z,1.60
2019-05-19T05:07:05.987Z,1.17
2019-05-19T05:09:35.986Z,1.80
2019-05-19T05:12:44.688Z,1.60
2019-05-19T05:18:15.917Z,2.23
2019-05-19T05:20:45.449Z,1.73
2019-05-19T05:23:56.877Z,2.20
2019-05-19T05:26:27.229Z,1.50
2019-05-19T05:29:35.963Z,1.53
2019-05-19T05:35:20.687Z,1.50
2019-05-19T05:37:50.400Z,1.50
2019-05-19T05:43:13.798Z,1.40
2019-05-19T05:48:38.425Z,1.60
2019-05-19T05:51:07.946Z,1.40
2019-05-19T05:53:37.441Z,1.30
2019-05-19T05:56:07.354Z,1.70
2019-05-19T06:02:25.184Z,1.40
2019-05-19T06:04:54.642Z,1.50
2019-05-19T06:07:24.227Z,1.50
2019-05-19T06:12:48.907Z,1.30
2019-05-19T06:18:27.219Z,1.47
2019-05-19T06:21:35.996Z,1.60
2019-05-19T06:24:44.915Z,1.40
2019-05-19T06:27:14.761Z,1.50
2019-05-19T06:29:44.203Z,1.50
2019-05-19T06:32:32.519Z,1.30
2019-05-19T06:35:02.295Z,1.30
2019-05-19T06:37:33.494Z,1.50
2019-05-19T06:40:42.360Z,1.73
2019-05-19T06:43:12.218Z,1.63
2019-05-19T06:45:41.695Z,1.57
2019-05-19T06:48:11.317Z,1.43
2019-05-19T06:50:43.075Z,1.47
2019-05-19T06:56:08.569Z,1.50
2019-05-19T06:59:17.423Z,1.43
2019-05-19T07:02:27.298Z,1.30
2019-05-19T07:07:36.197Z,1.30
2019-05-19T07:13:54.396Z,1.50
2019-05-19T07:16:23.940Z,1.33
2019-05-19T07:22:28.674Z,2.47
2019-05-19T07:28:00.881Z,1.10
2019-05-19T07:36:35.045Z,1.00
2019-05-19T07:42:14.194Z,1.30
2019-05-19T07:44:45.410Z,0.90
2019-05-19T07:50:16.923Z,1.00
2019-05-19T07:52:47.109Z,0.90
2019-05-19T07:55:16.512Z,0.80
2019-05-19T07:57:46.056Z,0.90
2019-05-19T08:06:31.692Z,0.90
2019-05-19T08:12:10.519Z,1.20
2019-05-19T08:14:39.903Z,1.00
2019-05-19T08:17:09.336Z,0.80
2019-05-19T08:20:19.197Z,1.17
2019-05-19T08:25:52.087Z,1.07
2019-05-19T08:28:21.697Z,1.00
2019-05-19T08:31:30.802Z,0.97
2019-05-19T08:34:02.181Z,1.00
2019-05-19T08:39:35.106Z,1.20
2019-05-19T08:45:13.256Z,0.73
2019-05-19T08:47:42.747Z,1.37
2019-05-19T08:53:13.781Z,1.00
2019-05-19T08:56:22.441Z,0.93
2019-05-19T08:58:51.938Z,0.97
2019-05-19T09:01:21.437Z,0.90
2019-05-19T09:04:30.260Z,0.80
2019-05-19T09:07:11.268Z,0.90
2019-05-19T09:10:20.250Z,0.97
2019-05-19T09:15:45.305Z,0.93
2019-05-19T09:18:53.973Z,1.00
2019-05-19T09:27:24.163Z,1.03
2019-05-19T09:29:53.591Z,0.90
2019-05-19T09:32:22.997Z,1.87
2019-05-19T09:34:52.431Z,0.90
2019-05-19T09:37:21.797Z,1.10
2019-05-19T09:39:51.171Z,1.50
2019-05-19T09:42:20.795Z,1.33
2019-05-19T09:44:50.328Z,1.70
2019-05-19T09:47:21.689Z,1.30
2019-05-19T09:50:30.409Z,1.20
2019-05-19T09:53:01.009Z,1.20
2019-05-19T09:56:09.671Z,1.40
2019-05-19T09:58:39.059Z,1.60
2019-05-19T10:01:08.794Z,1.60
2019-05-19T10:03:38.397Z,1.30
2019-05-19T10:10:01.343Z,1.30
2019-05-19T10:18:42.042Z,2.40
2019-05-19T10:21:50.958Z,3.40
2019-05-19T10:25:20.243Z,4.47
2019-05-19T10:30:46.133Z,4.10
2019-05-19T10:33:15.525Z,4.23
2019-05-19T10:35:44.998Z,3.93
2019-05-19T10:38:34.927Z,4.80
2019-05-19T10:41:04.755Z,4.20
2019-05-19T10:43:36.113Z,3.87
2019-05-19T10:46:44.990Z,2.20
2019-05-19T10:52:23.325Z,1.60
2019-05-19T10:54:52.929Z,1.63
2019-05-19T10:58:01.634Z,1.40
2019-05-19T11:00:50.246Z,1.40
2019-05-19T11:03:19.806Z,1.07
2019-05-19T11:05:49.638Z,1.90
2019-05-19T11:14:35.747Z,1.80
2019-05-19T11:23:07.610Z,1.30
2019-05-19T11:25:50.694Z,1.10
2019-05-19T11:28:08.246Z,0.80
2019-05-19T11:31:17.081Z,0.97
2019-05-19T11:36:48.007Z,1.10
2019-05-19T11:39:17.514Z,1.10
2019-05-19T11:42:06.062Z,1.00
2019-05-19T11:47:44.806Z,0.80
2019-05-19T11:50:33.333Z,1.20
2019-05-19T11:55:38.322Z,0.80
2019-05-19T11:58:08.273Z,1.40
2019-05-19T12:01:17.066Z,1.23
2019-05-19T12:03:46.554Z,0.90
2019-05-19T12:06:16.103Z,1.13
2019-05-19T12:08:45.650Z,0.83
2019-05-19T12:11:54.362Z,0.73
2019-05-19T12:14:24.116Z,1.00
2019-05-19T12:17:13.872Z,1.00
2019-05-19T12:19:55.021Z,0.87
2019-05-19T12:25:26.152Z,1.00
2019-05-19T12:31:44.408Z,1.10
2019-05-19T12:34:32.952Z,0.77
2019-05-19T12:37:03.555Z,1.30
2019-05-19T12:42:47.165Z,1.07
2019-05-19T12:45:56.067Z,0.90
2019-05-19T12:49:05.180Z,1.10
2019-05-19T12:54:14.201Z,1.03
2019-05-19T12:57:04.723Z,0.97
2019-05-19T12:59:34.159Z,1.30
2019-05-19T13:05:18.464Z,1.00
2019-05-19T13:07:48.069Z,1.17
2019-05-19T13:10:57.400Z,1.30
2019-05-19T13:13:27.643Z,0.80
2019-05-19T13:15:56.984Z,1.10
2019-05-19T13:19:05.957Z,1.07
2019-05-19T13:21:47.648Z,0.90
2019-05-19T13:24:17.235Z,0.93
2019-05-19T13:30:01.939Z,1.03
2019-05-19T13:32:32.259Z,1.07
2019-05-19T13:35:01.688Z,1.00
2019-05-19T13:37:31.171Z,1.10
2019-05-19T13:40:00.624Z,1.20
2019-05-19T13:42:30.025Z,1.10
2019-05-19T13:45:00.010Z,1.30
2019-05-19T13:48:08.812Z,2.00
2019-05-19T13:50:38.409Z,1.13
2019-05-19T13:56:22.230Z,1.20
2019-05-19T13:59:11.078Z,1.30
2019-05-19T14:04:36.090Z,1.07
2019-05-19T14:07:06.866Z,1.43
2019-05-19T14:09:36.225Z,1.20
2019-05-19T14:15:04.283Z,1.33
2019-05-19T14:17:33.570Z,1.00
2019-05-19T14:20:03.238Z,1.53
2019-05-19T14:22:32.713Z,1.67
2019-05-19T14:25:02.073Z,1.37
2019-05-19T14:27:31.576Z,1.60
2019-05-19T14:30:01.084Z,1.40
2019-05-19T14:32:30.418Z,1.13
2019-05-19T14:34:59.867Z,1.63
2019-05-19T14:37:29.310Z,1.33
2019-05-19T14:39:58.689Z,1.37
2019-05-19T14:42:47.124Z,1.20
2019-05-19T14:51:32.862Z,1.30
2019-05-19T14:54:03.882Z,1.40
2019-05-19T15:00:08.170Z,1.43
2019-05-19T15:02:37.677Z,1.20
2019-05-19T15:05:46.641Z,1.27
2019-05-19T15:11:24.915Z,1.20
2019-05-19T15:14:13.513Z,1.00
2019-05-19T15:16:42.938Z,1.57
2019-05-19T15:19:12.518Z,1.30
2019-05-19T15:21:42.037Z,1.30
2019-05-19T15:24:23.507Z,1.20
2019-05-19T15:29:55.017Z,1.20
2019-05-19T15:32:24.491Z,1.17
2019-05-19T15:38:28.713Z,1.40
2019-05-19T15:44:12.100Z,1.40
2019-05-19T15:47:20.968Z,1.63
2019-05-19T15:49:52.159Z,1.27
2019-05-19T15:55:35.924Z,1.43
2019-05-19T16:01:33.578Z,1.20
2019-05-19T16:04:03.017Z,1.27
2019-05-19T16:07:11.690Z,1.33
2019-05-19T16:13:01.201Z,1.30
2019-05-19T16:15:30.751Z,1.20
2019-05-19T16:21:35.400Z,1.43
2019-05-19T16:27:31.104Z,1.43
2019-05-19T16:30:12.204Z,1.30
2019-05-19T16:35:36.570Z,3.90
2019-05-19T16:38:45.399Z,4.67
2019-05-19T16:41:14.844Z,5.50
2019-05-19T16:43:44.263Z,6.10
2019-05-19T16:46:52.987Z,5.40
2019-05-19T16:49:22.391Z,5.57
2019-05-19T17:00:50.035Z,8.17
2019-05-19T17:03:19.957Z,7.10
2019-05-19T17:05:50.075Z,6.97
2019-05-19T17:11:34.347Z,5.40
2019-05-19T17:23:20.610Z,3.00
2019-05-19T17:25:50.019Z,2.80
2019-05-19T17:31:21.065Z,2.77
2019-05-19T17:36:51.803Z,2.10
2019-05-19T17:39:21.354Z,1.97
2019-05-19T17:41:50.772Z,2.27
2019-05-19T17:44:20.790Z,2.30
2019-05-19T17:53:08.339Z,1.90
2019-05-19T17:56:17.456Z,1.90
2019-05-19T17:59:26.294Z,1.77
2019-05-19T18:05:21.569Z,1.50
2019-05-19T18:11:05.750Z,1.43
2019-05-19T18:13:35.550Z,1.40
2019-05-19T18:16:05.033Z,1.27
2019-05-19T18:18:34.648Z,1.33
2019-05-19T18:21:04.642Z,1.20
2019-05-19T18:24:13.515Z,1.70
2019-05-19T18:26:42.992Z,1.43
2019-05-19T18:29:12.514Z,1.70
2019-05-19T18:31:42.038Z,1.53
2019-05-19T18:34:23.002Z,1.43
2019-05-19T18:37:32.874Z,1.33
2019-05-19T18:42:41.373Z,1.40
2019-05-19T18:45:50.267Z,1.67
2019-05-19T18:51:50.670Z,1.80
2019-05-19T18:54:59.805Z,1.30
2019-05-19T18:57:48.916Z,1.57
2019-05-19T19:00:59.842Z,1.43
2019-05-19T19:03:29.472Z,1.43
2019-05-19T19:05:59.034Z,1.27
2019-05-19T19:08:28.565Z,1.40
2019-05-19T19:10:58.009Z,1.50
2019-05-19T19:13:46.462Z,1.43
2019-05-19T19:19:24.652Z,1.40
2019-05-19T19:21:54.529Z,1.50
2019-05-19T19:24:42.944Z,1.60
2019-05-19T19:36:28.262Z,1.57
2019-05-19T19:42:18.050Z,1.37
2019-05-19T19:56:48.073Z,1.43
2019-05-19T19:59:57.036Z,1.53
2019-05-19T20:03:05.725Z,1.40
2019-05-19T20:08:49.600Z,1.43
2019-05-19T20:11:19.206Z,1.50
2019-05-19T20:17:22.930Z,1.50
2019-05-19T20:23:17.546Z,1.70
2019-05-19T20:25:46.911Z,1.53
2019-05-19T20:31:44.654Z,1.83
2019-05-19T20:37:21.175Z,2.00
2019-05-19T20:45:52.639Z,1.70
2019-05-19T20:48:22.538Z,1.70
2019-05-19T20:51:31.258Z,1.63
2019-05-19T20:54:00.897Z,1.33
2019-05-19T20:57:09.703Z,1.60
2019-05-19T20:59:39.197Z,1.33
2019-05-19T21:02:08.579Z,1.90
2019-05-19T21:04:38.048Z,1.60
2019-05-19T21:07:07.987Z,1.70
2019-05-19T21:10:16.725Z,1.57
2019-05-19T21:12:46.240Z,1.90
2019-05-19T21:15:55.015Z,1.60
2019-05-19T21:21:38.777Z,1.90
2019-05-19T21:24:47.449Z,1.90
2019-05-19T21:27:18.035Z,1.87
2019-05-19T21:29:47.448Z,1.80
2019-05-19T21:32:17.008Z,1.70
2019-05-19T21:34:46.641Z,1.83
2019-05-19T21:37:16.179Z,1.93
2019-05-19T21:39:45.681Z,1.70
2019-05-19T21:42:54.390Z,2.03
2019-05-19T21:45:24.013Z,2.40
2019-05-19T21:47:53.618Z,4.17
2019-05-19T21:50:23.282Z,5.90
2019-05-19T21:52:52.959Z,4.10
2019-05-19T21:55:24.294Z,3.00
2019-05-19T21:57:53.842Z,3.17
2019-05-19T22:06:49.505Z,1.97
2019-05-19T22:12:09.304Z,2.57
2019-05-19T22:14:38.884Z,3.07
2019-05-19T22:17:08.477Z,2.60
2019-05-19T22:20:17.316Z,2.97
2019-05-19T22:22:46.982Z,2.70
2019-05-19T22:25:17.349Z,2.40
2019-05-19T22:31:00.601Z,3.10
2019-05-19T22:33:30.026Z,3.23
2019-05-19T22:41:49.888Z,2.90
2019-05-19T22:44:20.314Z,2.63
2019-05-19T22:46:50.879Z,2.93
2019-05-19T22:52:29.323Z,3.07
2019-05-19T22:54:58.840Z,2.67
2019-05-19T22:57:28.222Z,2.70
2019-05-19T22:59:57.773Z,2.80
2019-05-19T23:05:41.820Z,2.80
2019-05-19T23:08:50.512Z,2.90
2019-05-19T23:11:59.261Z,3.03
2019-05-19T23:14:28.620Z,2.67
2019-05-19T23:16:57.998Z,3.27
2019-05-19T23:19:27.437Z,3.20
2019-05-19T23:21:56.951Z,3.00
2019-05-19T23:24:26.416Z,3.13
2019-05-19T23:26:55.907Z,3.20
2019-05-19T23:29:25.286Z,3.00
2019-05-19T23:32:06.207Z,3.00
2019-05-19T23:34:26.069Z,3.33
2019-05-19T23:37:15.842Z,2.70
2019-05-19T23:39:45.351Z,2.83
2019-05-19T23:42:54.054Z,3.13
2019-05-19T23:48:18.689Z,3.10
2019-05-19T23:50:48.053Z,2.90
2019-05-19T23:53:56.755Z,2.73
2019-05-19T23:56:26.271Z,2.80
2019-05-19T23:59:35.050Z,2.93
